CheckWX is a tool to help pilots better visualize weather data.  It is not intended as a substitute for an official pre-flight weather briefing.

07:24:32 UTC

KSGJ TAF
Northeast Florida Regional Airport
St Augustine, Florida, USA
KSGJ 160541Z 1606/1706 00000KT P6SM SCT015 FM161300 09006KT P6SM SCT020 SCT090 FM161700 09011KT P6SM VCTS SCT035CB SCT120 BKN200 FM162300 12008KT P6SM FEW030 BKN150 BKN250

Jun-16@
06:00 UTC

Jun-16 @ 06:00 UTC

Jun-16@
13:00 UTC

Jun-16 @ 13:00 UTC

KSGJ 160541Z 1606/1706 00000KT P6SM SCT015
Cloud Levels
  • Scattered at 1,500' AGL

Jun-16@
13:00 UTC

Jun-16 @ 13:00 UTC

Jun-16@
17:00 UTC

Jun-16 @ 17:00 UTC

FM161300 09006KT P6SM SCT020 SCT090

From

From Standard forecast or significant change

Wind
  • 090° at 6 KTS
Cloud Levels
  • Scattered at 2,000' AGL
  • Scattered at 9,000' AGL

Jun-16@
17:00 UTC

Jun-16 @ 17:00 UTC

Jun-16@
23:00 UTC

Jun-16 @ 23:00 UTC

FM161700 09011KT P6SM VCTS SCT035CB SCT120 BKN200

From

From Standard forecast or significant change

Wind
  • 090° at 11 KTS
Conditions
Area Thunderstorm
Cloud Levels
  • Scattered at 3,500' AGL
  • Scattered at 12,000' AGL
  • Broken at 20,000' AGL

Jun-16@
23:00 UTC

Jun-16 @ 23:00 UTC

Jun-17@
06:00 UTC

Jun-17 @ 06:00 UTC

FM162300 12008KT P6SM FEW030 BKN150 BKN250

From

From Standard forecast or significant change

Wind
  • 120° at 8 KTS
Cloud Levels
  • Few at 3,000' AGL
  • Broken at 15,000' AGL
  • Broken at 25,000' AGL